Time;durP1;ratioP1;P1;durP2;ratioP2;P2;SDS_P1;SDS_P2;PMS_P1;PMS_P2;Temp;Humidity;BMP_temperature;BMP_pressure;BME280_temperature;BME280_humidity;BME280_pressure;Samples;Min_cycle;Max_cycle;Signal;HPM_P1;HPM_P2
2023/08/14 00:01:07;;;;;;;9.20;4.13;;;15.80;99.90;15.10;100747;;;;558873;253;24073;-83
2023/08/14 00:03:35;;;;;;;8.27;4.37;;;15.80;99.90;15.10;100739;;;;558950;253;24134;-82
2023/08/14 00:06:03;;;;;;;7.67;3.83;;;15.80;99.90;15.20;100741;;;;558882;253;24082;-83
2023/08/14 00:08:31;;;;;;;8.87;3.83;;;15.80;99.90;15.20;100743;;;;558861;253;24158;-82
2023/08/14 00:10:59;;;;;;;7.17;3.73;;;15.80;99.90;15.20;100735;;;;558481;253;24114;-82
2023/08/14 00:13:27;;;;;;;10.63;3.97;;;15.80;99.90;15.20;100738;;;;558521;253;24097;-81
2023/08/14 00:15:56;;;;;;;10.53;3.80;;;15.80;99.90;15.20;100745;;;;558498;253;24152;-82
2023/08/14 00:18:24;;;;;;;5.53;4.13;;;15.80;99.90;15.20;100744;;;;558619;253;24108;-82
2023/08/14 00:20:52;;;;;;;6.43;4.13;;;15.80;99.90;15.20;100730;;;;558447;253;24122;-82
2023/08/14 00:23:20;;;;;;;13.03;4.03;;;15.80;99.90;15.20;100733;;;;558377;253;24095;-82
2023/08/14 00:25:48;;;;;;;7.30;3.47;;;15.80;99.90;15.20;100724;;;;558583;253;24098;-83
2023/08/14 00:28:16;;;;;;;6.83;3.93;;;15.90;99.90;15.20;100732;;;;559739;252;24136;-83
2023/08/14 00:30:44;;;;;;;7.60;4.00;;;15.80;99.90;15.20;100738;;;;559535;252;24125;-79
2023/08/14 00:33:11;;;;;;;8.27;3.20;;;15.90;99.90;15.20;100735;;;;559257;252;24103;-79
2023/08/14 00:35:39;;;;;;;8.27;3.83;;;15.90;99.90;15.20;100735;;;;559576;253;24108;-82
2023/08/14 00:38:07;;;;;;;10.97;3.60;;;15.80;99.90;15.20;100742;;;;559008;253;24127;-77
2023/08/14 00:40:36;;;;;;;5.73;3.20;;;15.80;99.90;15.20;100745;;;;558895;253;24128;-79
2023/08/14 00:43:07;;;;;;;5.57;3.70;;;15.80;99.90;15.20;100735;;;;559363;253;24093;-81
2023/08/14 00:45:33;;;;;;;8.90;4.30;;;15.80;99.90;15.20;100748;;;;557641;253;24093;-82
2023/08/14 00:48:01;;;;;;;13.73;4.07;;;15.80;99.90;15.20;100737;;;;568346;253;24087;-82
2023/08/14 00:50:29;;;;;;;6.53;4.00;;;15.80;99.90;15.20;100739;;;;568384;253;24093;-83
2023/08/14 00:52:57;;;;;;;9.33;3.87;;;15.80;99.90;15.20;100747;;;;558698;253;24191;-82
2023/08/14 00:55:28;;;;;;;3.70;3.13;;;15.80;99.90;15.20;100736;;;;558781;253;24105;-82
2023/08/14 00:57:56;;;;;;;3.97;3.00;;;15.80;99.90;15.20;100736;;;;558689;253;24139;-82
2023/08/14 01:00:28;;;;;;;9.20;3.70;;;15.90;99.90;15.30;100737;;;;559197;253;24085;-83
2023/08/14 01:02:52;;;;;;;5.07;4.00;;;15.90;99.90;15.30;100734;;;;558952;253;24163;-82
2023/08/14 01:05:20;;;;;;;4.10;3.70;;;15.90;99.90;15.30;100735;;;;558907;253;24079;-81
2023/08/14 01:07:48;;;;;;;6.10;3.70;;;15.90;99.90;15.30;100732;;;;558908;253;24077;-80
2023/08/14 01:10:20;;;;;;;5.17;3.47;;;16.00;99.90;15.40;100733;;;;558877;253;24096;-82
2023/08/14 01:13:04;;;;;;;5.10;3.50;;;16.00;99.90;15.40;100734;;;;556913;253;24081;-82
2023/08/14 01:15:33;;;;;;;6.07;3.23;;;16.00;99.90;15.40;100733;;;;556698;253;24083;-83
2023/08/14 01:18:02;;;;;;;11.60;3.70;;;16.00;99.90;15.40;100736;;;;567463;253;24152;-78
2023/08/14 01:20:31;;;;;;;8.47;3.37;;;16.00;99.90;15.30;100731;;;;566690;253;25178;-80
2023/08/14 01:23:01;;;;;;;9.70;3.07;;;15.90;99.90;15.30;100740;;;;567604;253;24112;-79
2023/08/14 01:25:37;;;;;;;6.83;3.77;;;15.90;99.90;15.30;100733;;;;557998;253;24106;-78
2023/08/14 01:28:06;;;;;;;4.80;3.33;;;15.90;99.90;15.20;100735;;;;566708;253;24101;-82
2023/08/14 01:30:34;;;;;;;4.37;3.07;;;15.80;99.90;15.20;100747;;;;558306;253;24083;-82
2023/08/14 01:32:59;;;;;;;5.40;3.43;;;15.80;99.90;15.20;100744;;;;558438;253;24106;-82
2023/08/14 01:35:29;;;;;;;7.93;3.37;;;15.80;99.90;15.10;100750;;;;558489;253;24097;-79
2023/08/14 01:38:16;;;;;;;3.80;2.67;;;15.70;99.90;15.10;100745;;;;558162;250;24119;-81
2023/08/14 01:41:02;;;;;;;3.93;3.50;;;15.70;99.90;15.10;100748;;;;559623;252;24163;-78
2023/08/14 01:43:39;;;;;;;3.00;2.73;;;15.70;99.90;15.10;100746;;;;558139;252;24093;-79
2023/08/14 01:46:07;;;;;;;3.27;2.93;;;15.70;99.90;15.10;100748;;;;556781;252;24197;-81
2023/08/14 01:48:35;;;;;;;5.00;2.83;;;15.70;99.90;15.10;100759;;;;559327;253;24091;-79
2023/08/14 01:51:03;;;;;;;3.37;3.07;;;15.60;99.90;15.10;100758;;;;567593;253;24107;-78
2023/08/14 01:53:34;;;;;;;7.67;3.30;;;15.70;99.90;15.10;100762;;;;559068;253;24097;-80
2023/08/14 01:56:01;;;;;;;3.20;2.57;;;15.70;99.90;15.10;100760;;;;558841;253;24136;-77
2023/08/14 01:58:32;;;;;;;3.43;2.93;;;15.70;99.90;15.10;100763;;;;558856;253;24177;-78
2023/08/14 02:00:58;;;;;;;7.03;3.30;;;15.60;99.90;15.10;100763;;;;558517;253;24115;-77
2023/08/14 02:03:27;;;;;;;5.53;3.00;;;15.60;99.90;15.10;100760;;;;558702;253;24125;-78
2023/08/14 02:05:59;;;;;;;5.43;3.10;;;15.60;99.90;15.10;100758;;;;558795;253;24088;-78
2023/08/14 02:08:23;;;;;;;4.50;3.17;;;15.60;99.90;15.10;100755;;;;557056;253;24093;-80
2023/08/14 02:10:51;;;;;;;4.20;3.10;;;15.60;99.90;15.00;100763;;;;558818;253;24176;-79
2023/08/14 02:13:19;;;;;;;6.83;2.80;;;15.60;99.90;15.00;100765;;;;559098;253;24083;-84
2023/08/14 02:15:47;;;;;;;6.97;3.50;;;15.60;99.90;15.00;100758;;;;558883;253;24130;-83
2023/08/14 02:18:15;;;;;;;3.57;2.93;;;15.50;99.90;14.90;100760;;;;558922;253;24093;-82
2023/08/14 02:20:47;;;;;;;4.03;2.83;;;15.40;99.90;14.90;100759;;;;558912;253;24083;-83
2023/08/14 02:23:15;;;;;;;10.07;3.10;;;15.40;99.90;14.90;100755;;;;558933;253;24102;-83
2023/08/14 02:25:42;;;;;;;2.83;2.63;;;15.40;99.90;14.90;100763;;;;558496;253;24085;-82
2023/08/14 02:28:10;;;;;;;5.47;2.93;;;15.40;99.90;14.80;100753;;;;558535;253;24087;-82
2023/08/14 02:30:41;;;;;;;8.20;3.00;;;15.40;99.90;14.80;100748;;;;558454;253;24090;-82
2023/08/14 02:33:06;;;;;;;4.30;2.83;;;15.30;99.90;14.80;100764;;;;558591;253;24083;-80
2023/08/14 02:35:34;;;;;;;5.47;2.97;;;15.30;99.90;14.80;100763;;;;558496;253;24079;-80
2023/08/14 02:38:05;;;;;;;5.37;3.20;;;15.30;99.90;14.80;100766;;;;558495;253;24108;-79
2023/08/14 02:40:32;;;;;;;7.37;2.73;;;15.30;99.90;14.80;100765;;;;558438;253;24108;-79
2023/08/14 02:43:03;;;;;;;6.07;3.00;;;15.30;99.90;14.70;100762;;;;558881;253;24104;-82
2023/08/14 02:45:32;;;;;;;5.70;3.07;;;15.30;99.90;14.70;100758;;;;566963;253;24132;-78
2023/08/14 02:47:57;;;;;;;6.35;3.58;;;15.30;99.90;14.70;100767;;;;552464;253;35335;-77
2023/08/14 02:50:25;;;;;;;3.23;2.93;;;15.30;99.90;14.70;100763;;;;559559;252;24151;-80
2023/08/14 02:52:53;;;;;;;4.50;2.70;;;15.30;99.90;14.70;100761;;;;559948;252;24185;-81
2023/08/14 02:55:21;;;;;;;6.97;2.80;;;15.20;99.90;14.70;100761;;;;559297;252;24089;-81
2023/08/14 02:57:49;;;;;;;7.80;3.07;;;15.20;99.90;14.70;100764;;;;559288;252;24122;-78
2023/08/14 03:00:16;;;;;;;6.60;3.00;;;15.20;99.90;14.70;100764;;;;559132;253;24090;-82
2023/08/14 03:02:44;;;;;;;4.90;3.17;;;15.20;99.90;14.70;100761;;;;559088;253;24117;-81
2023/08/14 03:05:15;;;;;;;3.33;2.60;;;15.20;99.90;14.60;100767;;;;559022;253;24073;-78
2023/08/14 03:07:40;;;;;;;6.97;2.80;;;15.20;99.90;14.60;100763;;;;557314;253;24119;-81
2023/08/14 03:10:08;;;;;;;3.23;2.47;;;15.20;99.90;14.70;100763;;;;558818;253;24120;-81
2023/08/14 03:12:36;;;;;;;2.87;2.57;;;15.20;99.90;14.70;100775;;;;559117;253;24075;-81
2023/08/14 03:15:07;;;;;;;3.13;2.83;;;15.20;99.90;14.70;100775;;;;559155;253;24106;-80
2023/08/14 03:17:35;;;;;;;3.67;2.40;;;15.20;99.90;14.70;100770;;;;568824;253;24105;-81
2023/08/14 03:20:06;;;;;;;5.17;2.80;;;15.20;99.90;14.70;100767;;;;559880;253;24101;-80
2023/08/14 03:22:31;;;;;;;3.27;2.63;;;15.20;99.90;14.70;100768;;;;559829;253;24094;-82
2023/08/14 03:24:58;;;;;;;3.73;2.97;;;15.20;99.90;14.70;100768;;;;560098;253;24110;-80
2023/08/14 03:27:30;;;;;;;5.77;2.70;;;15.30;99.90;14.70;100767;;;;559191;253;24089;-80
2023/08/14 03:29:54;;;;;;;3.40;2.67;;;15.30;99.90;14.80;100768;;;;559694;253;24081;-80
2023/08/14 03:32:23;;;;;;;3.20;2.60;;;15.30;99.90;14.80;100769;;;;559220;253;24089;-82
2023/08/14 03:34:51;;;;;;;4.50;2.63;;;15.30;99.90;14.70;100768;;;;559675;253;24116;-82
2023/08/14 03:37:19;;;;;;;6.17;3.03;;;15.20;99.90;14.70;100765;;;;559801;253;24144;-82
2023/08/14 03:39:47;;;;;;;5.50;2.80;;;15.30;99.90;14.70;100767;;;;559817;253;24074;-83
2023/08/14 03:42:15;;;;;;;4.17;2.67;;;15.30;99.90;14.70;100767;;;;559498;253;24168;-81
2023/08/14 03:44:43;;;;;;;5.10;2.83;;;15.30;99.90;14.80;100763;;;;559538;253;24142;-79
2023/08/14 03:47:12;;;;;;;3.57;2.80;;;15.30;99.90;14.80;100766;;;;560131;253;24091;-82
2023/08/14 03:49:38;;;;;;;2.67;2.43;;;15.30;99.90;14.80;100766;;;;560227;253;24107;-82
2023/08/14 03:52:06;;;;;;;5.37;3.03;;;15.40;99.90;14.80;100769;;;;559735;253;24086;-82
2023/08/14 03:54:34;;;;;;;6.33;3.00;;;15.40;99.90;14.90;100762;;;;559367;253;24099;-83
2023/08/14 03:57:02;;;;;;;5.10;3.07;;;15.40;99.90;15.00;100755;;;;558853;253;24092;-80
2023/08/14 03:59:30;;;;;;;2.63;2.33;;;15.50;99.90;15.00;100755;;;;558827;253;24124;-82
2023/08/14 04:01:58;;;;;;;2.47;2.27;;;15.50;99.90;15.10;100757;;;;559409;252;23091;-80
2023/08/14 04:04:26;;;;;;;8.50;2.60;;;15.60;99.90;15.20;100763;;;;559601;252;24148;-80
2023/08/14 04:06:55;;;;;;;4.43;3.07;;;15.80;99.90;15.30;100748;;;;559274;252;24096;-79
2023/08/14 04:09:23;;;;;;;7.07;2.77;;;15.90;99.90;15.40;100758;;;;559245;252;24091;-81
2023/08/14 04:11:51;;;;;;;4.53;2.97;;;15.80;99.90;15.50;100762;;;;558919;253;24172;-78
2023/08/14 04:14:20;;;;;;;2.90;2.60;;;16.10;99.90;15.60;100755;;;;559398;253;24152;-81
2023/08/14 04:16:48;;;;;;;3.33;2.20;;;16.10;99.90;15.70;100765;;;;559503;253;24139;-81
2023/08/14 04:19:19;;;;;;;4.80;2.43;;;16.20;99.90;15.80;100761;;;;559474;253;24102;-80
2023/08/14 04:21:46;;;;;;;5.70;2.87;;;16.30;99.90;15.90;100765;;;;558687;253;24114;-78
2023/08/14 04:24:11;;;;;;;3.03;2.30;;;16.40;99.90;16.10;100774;;;;557375;253;24163;-77
2023/08/14 04:26:43;;;;;;;2.83;2.37;;;17.30;99.90;16.90;100764;;;;559175;253;24157;-81
2023/08/14 04:29:08;;;;;;;3.77;2.83;;;17.30;99.90;18.10;100767;;;;557220;253;24132;-82
2023/08/14 04:31:39;;;;;;;3.17;2.30;;;18.60;99.90;19.50;100768;;;;559030;253;24202;-80
2023/08/14 04:34:10;;;;;;;3.40;2.20;;;20.00;99.90;20.80;100767;;;;558919;253;24083;-78
2023/08/14 04:36:35;;;;;;;4.17;1.77;;;21.50;99.90;22.20;100776;;;;558489;253;23126;-80
2023/08/14 04:39:13;;;;;;;3.53;2.13;;;22.90;99.90;23.80;100774;;;;558819;253;24109;-82
2023/08/14 04:41:31;;;;;;;4.03;2.63;;;24.60;99.90;25.00;100773;;;;566205;253;23169;-80
2023/08/14 04:43:58;;;;;;;4.47;2.00;;;25.90;99.90;26.00;100775;;;;559133;253;23123;-80
2023/08/14 04:46:35;;;;;;;2.83;1.70;;;26.90;99.90;26.80;100772;;;;559277;253;23111;-78
2023/08/14 04:49:04;;;;;;;7.57;2.30;;;28.40;99.90;27.20;100787;;;;559360;253;23131;-78
2023/08/14 04:51:35;;;;;;;2.53;2.03;;;28.30;99.90;28.00;100777;;;;559577;253;23118;-79
2023/08/14 04:54:18;;;;;;;5.55;2.10;;;29.60;99.90;28.70;100779;;;;559503;253;23093;-77
2023/08/14 04:56:46;;;;;;;2.70;1.98;;;30.30;99.50;29.40;100783;;;;559385;253;23083;-79
2023/08/14 04:59:14;;;;;;;3.35;1.70;;;30.30;99.50;30.20;100785;;;;558852;253;23116;-80
2023/08/14 05:01:42;;;;;;;5.35;1.62;;;31.00;95.60;30.70;100785;;;;559150;253;23148;-81
2023/08/14 05:04:10;;;;;;;3.05;1.70;;;31.60;93.50;31.40;100794;;;;559026;253;24105;-80
2023/08/14 05:06:38;;;;;;;2.72;2.10;;;32.30;90.70;31.90;100789;;;;558596;253;23101;-80
2023/08/14 05:09:06;;;;;;;1.80;1.70;;;32.80;87.90;32.50;100781;;;;558469;253;23104;-81
2023/08/14 05:11:34;;;;;;;2.83;1.60;;;33.40;84.50;33.20;100788;;;;559120;253;23091;-80
2023/08/14 05:14:02;;;;;;;3.05;1.80;;;34.00;80.20;33.70;100787;;;;560357;252;23135;-80
2023/08/14 05:16:32;;;;;;;2.30;1.70;;;34.50;76.30;34.30;100787;;;;560048;252;23094;-80
2023/08/14 05:18:57;;;;;;;3.35;1.95;;;35.10;73.40;34.80;100790;;;;559409;252;24130;-79
2023/08/14 05:21:25;;;;;;;3.55;1.83;;;35.60;70.90;35.30;100786;;;;559622;252;23092;-79
2023/08/14 05:23:53;;;;;;;6.95;1.60;;;36.10;68.10;36.00;100793;;;;568093;253;24086;-79
2023/08/14 05:26:22;;;;;;;2.78;1.80;;;37.20;63.40;36.40;100785;;;;559663;253;23140;-80
2023/08/14 05:28:51;;;;;;;3.67;1.87;;;37.80;60.50;37.10;100793;;;;559578;253;23119;-80
2023/08/14 05:31:19;;;;;;;3.05;1.80;;;38.30;59.40;37.60;100797;;;;559057;253;23092;-81
2023/08/14 05:33:48;;;;;;;6.32;2.08;;;38.70;58.20;38.10;100799;;;;558819;253;23106;-80
2023/08/14 05:36:16;;;;;;;3.20;1.60;;;38.70;58.20;38.60;100794;;;;558772;253;23179;-81
2023/08/14 05:38:45;;;;;;;2.10;1.70;;;39.30;56.90;39.20;100794;;;;558675;253;24127;-79
2023/08/14 05:41:12;;;;;;;9.43;2.00;;;39.80;55.30;39.60;100804;;;;558725;253;23197;-81
2023/08/14 05:43:40;;;;;;;8.18;1.98;;;40.30;54.70;40.20;100807;;;;558257;253;23100;-80
2023/08/14 05:46:08;;;;;;;10.10;2.53;;;40.80;54.20;40.80;100810;;;;559104;253;23092;-80
2023/08/14 05:48:35;;;;;;;4.37;1.98;;;41.30;52.20;41.20;100811;;;;559029;253;23098;-80
2023/08/14 05:51:03;;;;;;;4.37;2.10;;;41.70;51.30;41.60;100811;;;;558772;253;23137;-80
2023/08/14 05:53:32;;;;;;;3.08;2.03;;;42.40;50.10;41.80;100801;;;;558796;253;23099;-80
2023/08/14 05:56:01;;;;;;;7.55;1.85;;;42.70;49.30;42.20;100808;;;;558816;253;23088;-81
2023/08/14 05:58:29;;;;;;;3.45;1.65;;;42.70;49.30;42.50;100808;;;;558599;253;23104;-81
2023/08/14 06:00:57;;;;;;;3.80;1.98;;;43.00;48.70;42.80;100823;;;;558348;253;23105;-81
2023/08/14 06:03:29;;;;;;;3.55;1.90;;;43.20;48.20;43.20;100823;;;;558595;253;23119;-80
2023/08/14 06:05:52;;;;;;;8.60;2.00;;;43.70;47.70;43.70;100827;;;;558299;253;23135;-81
2023/08/14 06:08:20;;;;;;;5.68;1.90;;;44.10;46.90;44.10;100826;;;;558479;253;23153;-81
2023/08/14 06:10:48;;;;;;;3.00;1.87;;;44.50;46.20;44.50;100834;;;;558517;253;23093;-80
2023/08/14 06:13:16;;;;;;;2.40;1.90;;;44.90;45.30;44.50;100823;;;;558511;253;23091;-83
2023/08/14 06:15:45;;;;;;;2.60;1.60;;;44.90;44.30;44.30;100830;;;;559058;253;23173;-79
2023/08/14 06:18:13;;;;;;;3.47;1.67;;;44.90;44.20;44.60;100833;;;;558890;253;23134;-81
2023/08/14 06:20:41;;;;;;;4.18;1.90;;;45.10;44.40;44.90;100831;;;;558836;253;24133;-82
2023/08/14 06:23:09;;;;;;;3.90;2.00;;;45.30;44.10;45.20;100831;;;;558809;253;23178;-80
2023/08/14 06:25:36;;;;;;;6.95;2.20;;;45.60;44.00;45.60;100832;;;;559874;252;23097;-82
2023/08/14 06:28:04;;;;;;;3.87;1.92;;;45.90;43.70;46.00;100833;;;;559968;252;23102;-81
2023/08/14 06:30:32;;;;;;;3.40;1.60;;;46.30;43.40;46.70;100835;;;;559619;252;23112;-79
2023/08/14 06:33:01;;;;;;;6.15;1.90;;;46.90;41.90;46.70;100838;;;;559413;252;23206;-83
2023/08/14 06:35:29;;;;;;;2.80;1.87;;;47.30;41.80;46.90;100839;;;;559045;253;23111;-82
2023/08/14 06:37:57;;;;;;;6.28;1.80;;;47.20;41.80;47.00;100837;;;;558853;253;23088;-79
2023/08/14 06:40:25;;;;;;;2.47;2.05;;;47.40;41.00;46.90;100844;;;;559075;253;23089;-82
2023/08/14 06:42:53;;;;;;;3.90;2.30;;;47.30;41.20;47.00;100844;;;;558858;253;23127;-78
2023/08/14 06:45:21;;;;;;;3.75;1.67;;;47.30;40.90;47.10;100834;;;;559091;253;23107;-79
2023/08/14 06:47:48;;;;;;;5.78;2.08;;;47.40;40.60;47.10;100837;;;;559100;253;23081;-78
2023/08/14 06:50:16;;;;;;;6.03;2.17;;;47.50;40.70;47.30;100838;;;;559142;253;23115;-79
2023/08/14 06:52:44;;;;;;;3.97;2.25;;;47.60;41.70;47.70;100846;;;;568349;253;23121;-77
2023/08/14 06:55:12;;;;;;;5.70;2.30;;;47.90;40.90;47.90;100847;;;;557784;253;23088;-77
2023/08/14 06:57:40;;;;;;;3.78;2.60;;;48.10;40.50;48.10;100853;;;;554194;253;35256;-78
2023/08/14 07:00:12;;;;;;;5.78;2.30;;;48.30;39.80;48.30;100856;;;;564196;246;23097;-83
2023/08/14 07:02:36;;;;;;;6.97;2.47;;;48.40;39.30;48.30;100865;;;;567675;246;24081;-82
2023/08/14 07:05:04;;;;;;;4.07;2.40;;;48.50;39.90;48.50;100873;;;;568881;248;24147;-82
2023/08/14 07:07:32;;;;;;;6.62;2.33;;;48.70;39.30;48.00;100864;;;;564371;250;23066;-79
2023/08/14 07:10:01;;;;;;;7.65;2.58;;;47.90;39.10;47.50;100862;;;;551631;255;23164;-81
2023/08/14 07:12:29;;;;;;;11.73;2.55;;;47.90;39.00;47.50;100866;;;;550865;255;26361;-81
2023/08/14 07:14:57;;;;;;;2.67;1.67;;;47.80;39.30;47.70;100867;;;;553325;256;25329;-79
2023/08/14 07:17:25;;;;;;;2.55;1.55;;;47.80;39.10;47.50;100864;;;;552478;255;23263;-81
2023/08/14 07:19:56;;;;;;;5.65;2.28;;;47.70;39.10;47.30;100869;;;;551610;255;23185;-79
2023/08/14 07:22:20;;;;;;;3.33;2.15;;;47.60;39.10;47.40;100873;;;;551428;255;23158;-81
2023/08/14 07:24:48;;;;;;;11.77;1.98;;;47.60;39.80;47.70;100876;;;;562246;250;23084;-79
2023/08/14 07:27:17;;;;;;;5.85;2.33;;;47.80;39.60;48.10;100880;;;;561773;251;23080;-79
2023/08/14 07:29:44;;;;;;;2.55;1.90;;;48.10;39.30;48.40;100879;;;;549676;255;23175;-80
2023/08/14 07:32:12;;;;;;;2.15;2.05;;;48.50;39.10;48.70;100872;;;;561148;251;23127;-79
2023/08/14 07:34:41;;;;;;;4.53;2.22;;;49.00;38.00;48.90;100877;;;;558709;255;23139;-83
2023/08/14 07:37:09;;;;;;;5.90;2.30;;;49.00;37.90;48.70;100878;;;;561868;250;23082;-80
2023/08/14 07:39:36;;;;;;;2.87;2.12;;;48.90;38.50;48.70;100877;;;;554047;255;23156;-79
2023/08/14 07:42:05;;;;;;;5.78;2.22;;;48.70;38.40;48.40;100872;;;;551697;254;23159;-79
2023/08/14 07:44:33;;;;;;;3.53;2.30;;;48.70;38.40;48.30;100877;;;;560187;254;23193;-77
2023/08/14 07:47:01;;;;;;;2.65;1.95;;;48.50;39.00;48.40;100875;;;;554114;255;23190;-78
2023/08/14 07:49:29;;;;;;;3.25;2.20;;;48.50;38.70;48.50;100879;;;;552486;254;23212;-78
2023/08/14 07:51:57;;;;;;;2.35;1.98;;;48.60;39.30;49.00;100871;;;;551975;255;23133;-77
2023/08/14 07:54:25;;;;;;;2.70;2.08;;;49.00;38.60;49.40;100877;;;;552123;255;23182;-76
2023/08/14 07:56:59;;;;;;;2.05;1.87;;;49.40;37.70;49.50;100875;;;;552369;254;23119;-78
2023/08/14 07:59:24;;;;;;;5.03;2.20;;;49.60;38.50;50.00;100880;;;;550073;255;23172;-77
2023/08/14 08:01:55;;;;;;;2.40;2.10;;;50.10;38.00;50.40;100869;;;;559617;255;23161;-78
2023/08/14 08:04:19;;;;;;;3.05;2.08;;;50.50;37.10;50.30;100870;;;;560101;255;23129;-78
2023/08/14 08:06:52;;;;;;;3.47;2.78;;;50.60;36.50;49.70;100866;;;;560291;255;23155;-77
2023/08/14 08:09:20;;;;;;;3.90;2.20;;;50.00;36.90;49.50;100863;;;;551003;256;24284;-78
2023/08/14 08:11:48;;;;;;;2.95;2.55;;;49.80;37.20;48.90;100868;;;;551085;256;23120;-78
2023/08/14 08:14:19;;;;;;;3.83;2.50;;;49.00;37.60;48.40;100872;;;;552360;254;23155;-76
2023/08/14 08:16:45;;;;;;;3.83;2.37;;;48.90;37.50;48.10;100877;;;;550573;256;23248;-79
2023/08/14 08:19:13;;;;;;;3.97;2.47;;;48.70;38.40;48.50;100868;;;;572003;246;24087;-77
2023/08/14 08:21:43;;;;;;;2.97;2.37;;;48.80;38.90;48.60;100873;;;;569595;246;23089;-80
2023/08/14 08:24:11;;;;;;;2.50;2.30;;;49.00;37.80;48.70;100868;;;;569860;248;23052;-81
2023/08/14 08:26:40;;;;;;;2.60;2.40;;;49.00;38.80;49.30;100871;;;;566599;251;23109;-80
2023/08/14 08:29:05;;;;;;;6.30;2.80;;;49.60;37.30;49.80;100868;;;;565096;246;34947;-78
2023/08/14 08:31:33;;;;;;;4.47;2.22;;;50.60;36.50;50.50;100866;;;;577972;246;23104;-82
2023/08/14 08:34:01;;;;;;;6.03;2.42;;;50.60;36.50;50.40;100872;;;;569245;248;23143;-78
2023/08/14 08:36:29;;;;;;;2.42;2.28;;;50.80;36.40;50.50;100869;;;;552888;255;23148;-78
2023/08/14 08:38:57;;;;;;;5.18;2.20;;;50.90;36.30;50.00;100870;;;;570041;248;23068;-79
2023/08/14 08:41:34;;;;;;;2.40;2.17;;;50.70;36.60;50.10;100874;;;;552678;255;23151;-79
2023/08/14 08:44:10;;;;;;;7.07;2.30;;;50.70;36.10;50.20;100874;;;;569907;248;23049;-77
2023/08/14 08:46:38;;;;;;;5.32;2.33;;;50.80;36.10;50.50;100868;;;;553038;254;23135;-77
2023/08/14 08:49:06;;;;;;;24.25;2.75;;;51.10;36.50;50.90;100877;;;;570998;247;24221;-79
2023/08/14 08:51:35;;;;;;;2.97;2.17;;;51.90;35.00;51.00;100873;;;;560817;250;23181;-80
2023/08/14 08:54:06;;;;;;;2.62;2.25;;;51.80;34.90;50.40;100873;;;;571093;247;23044;-79
2023/08/14 08:56:30;;;;;;;6.43;2.00;;;51.50;35.10;50.00;100872;;;;553558;255;24161;-79
2023/08/14 08:58:58;;;;;;;2.47;2.20;;;51.10;35.80;50.80;100865;;;;570573;248;23055;-80
2023/08/14 09:01:26;;;;;;;4.78;2.40;;;51.50;35.90;51.20;100870;;;;553384;255;23129;-78
2023/08/14 09:03:54;;;;;;;9.43;2.47;;;51.90;35.70;51.60;100868;;;;579186;247;23058;-79
2023/08/14 09:06:22;;;;;;;5.10;2.15;;;52.50;35.20;51.70;100863;;;;553150;255;23136;-80
2023/08/14 09:08:50;;;;;;;3.42;2.30;;;52.80;34.40;51.50;100861;;;;579044;247;23093;-78
2023/08/14 09:11:18;;;;;;;3.15;2.37;;;52.80;34.30;50.40;100861;;;;553191;255;23143;-80
2023/08/14 09:13:46;;;;;;;2.75;2.37;;;52.10;34.00;48.90;100867;;;;570643;248;23059;-78
2023/08/14 09:16:15;;;;;;;3.97;2.28;;;49.50;35.50;47.50;100866;;;;562108;255;23193;-77
2023/08/14 09:18:45;;;;;;;4.55;2.40;;;49.40;35.50;47.40;100867;;;;570565;248;23042;-78
2023/08/14 09:21:16;;;;;;;3.90;2.55;;;48.80;36.80;48.30;100867;;;;560080;251;25300;-79
2023/08/14 09:23:41;;;;;;;2.75;2.20;;;49.20;36.10;48.70;100857;;;;570460;248;23066;-79
2023/08/14 09:26:09;;;;;;;4.47;2.15;;;49.70;35.90;48.60;100865;;;;560389;252;23154;-80
2023/08/14 09:28:37;;;;;;;3.08;2.15;;;49.80;35.50;48.30;100855;;;;570826;251;23200;-78
2023/08/14 09:31:07;;;;;;;2.17;2.00;;;49.80;35.80;48.70;100856;;;;568719;252;24160;-79
2023/08/14 09:33:38;;;;;;;4.07;2.05;;;49.90;35.50;48.70;100859;;;;558957;252;24153;-78
2023/08/14 09:36:06;;;;;;;5.70;2.70;;;50.00;35.90;48.40;100865;;;;558952;252;24217;-79
2023/08/14 09:38:34;;;;;;;2.08;1.70;;;50.00;35.00;47.30;100864;;;;558322;252;23140;-80
2023/08/14 09:41:02;;;;;;;4.20;2.30;;;49.30;35.30;47.30;100868;;;;558673;252;23138;-78
2023/08/14 09:43:30;;;;;;;3.47;2.05;;;49.00;35.80;47.60;100867;;;;558698;252;23143;-80
2023/08/14 09:46:01;;;;;;;3.40;2.00;;;49.10;35.90;47.40;100862;;;;561363;252;23159;-81
2023/08/14 09:48:43;;;;;;;3.80;2.10;;;49.10;35.40;47.50;100864;;;;559286;252;23136;-82
2023/08/14 09:51:11;;;;;;;2.42;2.22;;;49.10;36.10;48.10;100864;;;;559020;252;23219;-82
2023/08/14 09:53:52;;;;;;;3.92;1.98;;;49.60;35.20;47.90;100866;;;;561143;252;23124;-81
2023/08/14 09:56:20;;;;;;;7.37;2.42;;;48.90;35.80;46.80;100861;;;;558470;252;23127;-83
2023/08/14 09:58:45;;;;;;;4.47;2.17;;;48.80;35.70;46.30;100857;;;;560864;252;23201;-83
2023/08/14 10:01:16;;;;;;;4.53;2.08;;;47.90;36.50;45.80;100854;;;;562094;251;23156;-79
2023/08/14 10:03:46;;;;;;;4.00;2.60;;;47.80;36.40;46.40;100861;;;;559417;251;23145;-78
2023/08/14 10:06:12;;;;;;;2.10;1.95;;;48.00;36.80;46.20;100851;;;;569891;251;23269;-80
2023/08/14 10:08:40;;;;;;;3.55;2.67;;;48.00;36.10;46.70;100864;;;;561660;251;23144;-78
2023/08/14 10:11:08;;;;;;;2.78;2.58;;;48.30;36.00;46.00;100857;;;;561299;251;23147;-79
2023/08/14 10:13:36;;;;;;;3.58;2.37;;;48.00;36.50;46.00;100859;;;;570901;251;23125;-80
2023/08/14 10:16:04;;;;;;;2.20;2.10;;;48.00;37.00;46.50;100859;;;;570674;251;23214;-80
2023/08/14 10:18:32;;;;;;;3.03;2.65;;;48.30;36.40;46.00;100858;;;;570602;252;23141;-81
2023/08/14 10:21:00;;;;;;;4.55;2.70;;;48.00;36.30;45.50;100862;;;;570780;252;23221;-78
2023/08/14 10:23:27;;;;;;;7.37;2.50;;;47.50;36.40;45.50;100847;;;;570519;252;23181;-82
2023/08/14 10:25:59;;;;;;;4.75;1.90;;;47.30;36.80;45.10;100851;;;;570420;252;23142;-82
2023/08/14 10:28:23;;;;;;;3.28;2.00;;;47.00;37.40;44.60;100850;;;;559639;252;24199;-82
2023/08/14 10:30:54;;;;;;;6.07;2.20;;;46.50;37.20;43.40;100843;;;;570508;252;23134;-78
2023/08/14 10:33:19;;;;;;;2.25;2.05;;;45.60;37.50;41.80;100843;;;;560514;252;23265;-81
2023/08/14 10:35:58;;;;;;;6.40;2.67;;;44.20;38.30;41.00;100834;;;;561565;252;23135;-77
2023/08/14 10:38:24;;;;;;;2.30;2.05;;;43.10;39.60;40.20;100836;;;;561009;252;23136;-78
2023/08/14 10:40:55;;;;;;;2.05;1.83;;;42.30;40.50;39.10;100832;;;;560511;252;23146;-76
2023/08/14 10:43:19;;;;;;;5.93;2.00;;;41.20;41.30;38.00;100828;;;;569068;252;23157;-78
2023/08/14 10:45:47;;;;;;;2.20;1.98;;;40.10;42.60;37.00;100820;;;;569670;252;24174;-80
2023/08/14 10:48:19;;;;;;;4.12;2.03;;;38.90;43.80;35.90;100816;;;;561940;252;23242;-82
2023/08/14 10:50:43;;;;;;;2.80;1.92;;;37.70;45.40;35.10;100824;;;;570435;252;23200;-79
2023/08/14 10:53:11;;;;;;;2.50;1.85;;;36.50;46.90;34.30;100818;;;;569936;252;24123;-78
2023/08/14 10:55:45;;;;;;;3.58;2.50;;;35.40;48.30;33.40;100821;;;;569592;252;23157;-77
2023/08/14 10:58:32;;;;;;;5.57;1.62;;;34.40;49.10;32.50;100816;;;;558509;252;23265;-76
2023/08/14 11:01:00;;;;;;;1.75;1.65;;;32.40;52.70;31.60;100822;;;;558922;252;23156;-75
2023/08/14 11:03:31;;;;;;;4.95;2.03;;;32.30;52.60;31.00;100829;;;;560791;252;23190;-75
2023/08/14 11:05:56;;;;;;;6.07;2.08;;;31.70;54.30;30.50;100815;;;;558727;252;24243;-75
2023/08/14 11:08:27;;;;;;;2.72;2.10;;;31.10;55.30;30.20;100809;;;;560943;252;23195;-76
2023/08/14 11:10:52;;;;;;;4.72;1.83;;;30.60;56.20;30.20;100813;;;;559144;249;23179;-82
2023/08/14 11:13:23;;;;;;;2.20;1.92;;;30.60;57.00;30.10;100806;;;;559704;251;24172;-80
2023/08/14 11:15:48;;;;;;;3.50;1.83;;;30.50;56.50;30.20;100804;;;;559541;251;23145;-76